createdAt,value
2017-11-20T00:02:09.441Z,2.87
2017-11-20T00:05:32.908Z,2.90
2017-11-20T00:08:57.144Z,6.37
2017-11-20T00:12:20.672Z,3.30
2017-11-20T00:15:44.143Z,4.10
2017-11-20T00:19:07.719Z,3.47
2017-11-20T00:22:32.064Z,4.23
2017-11-20T00:25:55.536Z,4.67
2017-11-20T00:29:19.107Z,5.27
2017-11-20T00:32:42.578Z,3.50
2017-11-20T00:36:06.281Z,4.07
2017-11-20T00:39:30.532Z,3.27
2017-11-20T00:42:54.001Z,3.30
2017-11-20T00:46:17.480Z,6.40
2017-11-20T00:49:40.986Z,3.50
2017-11-20T00:53:04.449Z,4.33
2017-11-20T00:56:27.911Z,3.07
2017-11-20T00:59:51.578Z,5.23
2017-11-20T01:03:15.038Z,4.30
2017-11-20T01:06:38.496Z,3.63
2017-11-20T01:10:01.993Z,4.37
2017-11-20T01:13:25.449Z,4.40
2017-11-20T01:16:48.941Z,3.83
2017-11-20T01:20:12.381Z,3.57
2017-11-20T01:23:35.852Z,3.47
2017-11-20T01:26:59.546Z,4.33
2017-11-20T01:30:23.044Z,3.07
2017-11-20T01:33:46.508Z,5.23
2017-11-20T01:37:10.024Z,5.30
2017-11-20T01:40:33.490Z,4.23
2017-11-20T01:43:57.728Z,3.77
2017-11-20T01:47:21.243Z,4.63
2017-11-20T01:50:45.451Z,3.57
2017-11-20T01:54:09.132Z,2.93
2017-11-20T01:57:33.498Z,3.33
2017-11-20T02:00:57.747Z,5.10
2017-11-20T02:04:21.210Z,6.10
2017-11-20T02:07:44.685Z,3.40
2017-11-20T02:11:08.263Z,3.50
2017-11-20T02:14:31.728Z,3.00
2017-11-20T02:17:55.214Z,4.00
2017-11-20T02:21:18.687Z,3.93
2017-11-20T02:24:42.135Z,4.23
2017-11-20T02:28:05.612Z,3.70
2017-11-20T02:31:29.066Z,2.73
2017-11-20T02:34:52.580Z,4.70
2017-11-20T02:38:16.060Z,3.70
2017-11-20T02:41:39.514Z,3.33
2017-11-20T02:45:03.001Z,3.90
2017-11-20T02:48:26.456Z,5.03
2017-11-20T02:51:49.916Z,3.10
2017-11-20T02:55:13.368Z,3.57
2017-11-20T02:58:36.827Z,4.23
2017-11-20T03:02:00.404Z,3.97
2017-11-20T03:05:23.883Z,2.93
2017-11-20T03:08:47.345Z,2.60
2017-11-20T03:12:10.831Z,4.73
2017-11-20T03:15:34.295Z,4.00
2017-11-20T03:18:57.753Z,4.30
2017-11-20T03:22:21.223Z,2.90
2017-11-20T03:25:44.745Z,2.93
2017-11-20T03:29:08.207Z,3.70
2017-11-20T03:32:31.695Z,4.80
2017-11-20T03:35:55.151Z,3.43
2017-11-20T03:39:18.631Z,4.07
2017-11-20T03:42:42.089Z,2.93
2017-11-20T03:46:05.555Z,3.90
2017-11-20T03:49:29.016Z,2.73
2017-11-20T03:52:52.502Z,2.40
2017-11-20T03:56:15.992Z,2.50
2017-11-20T03:59:39.463Z,2.37
2017-11-20T04:03:02.935Z,2.80
2017-11-20T04:06:26.387Z,3.57
2017-11-20T04:09:49.862Z,4.20
2017-11-20T04:13:13.348Z,3.73
2017-11-20T04:16:36.804Z,1.93
2017-11-20T04:20:00.272Z,4.13
2017-11-20T04:23:23.772Z,2.30
2017-11-20T04:26:47.231Z,2.30
2017-11-20T04:30:10.696Z,3.60
2017-11-20T04:33:34.311Z,3.50
2017-11-20T04:36:58.668Z,2.53
2017-11-20T04:40:22.151Z,2.40
2017-11-20T04:43:45.611Z,3.00
2017-11-20T04:47:09.156Z,2.30
2017-11-20T04:50:32.648Z,2.97
2017-11-20T04:53:56.115Z,2.60
2017-11-20T04:57:19.748Z,4.90
2017-11-20T05:00:43.215Z,3.17
2017-11-20T05:04:07.429Z,3.83
2017-11-20T05:07:30.925Z,2.47
2017-11-20T05:10:54.383Z,2.07
2017-11-20T05:14:17.900Z,4.30
2017-11-20T05:17:42.243Z,2.40
2017-11-20T05:21:05.716Z,3.63
2017-11-20T05:24:29.200Z,2.30
2017-11-20T05:27:52.684Z,2.40
2017-11-20T05:31:16.135Z,2.43
2017-11-20T05:34:39.662Z,3.30
2017-11-20T05:38:03.144Z,1.90
2017-11-20T05:41:26.678Z,1.80
2017-11-20T05:44:50.159Z,2.20
2017-11-20T05:48:15.316Z,2.77
2017-11-20T05:51:38.792Z,2.30
2017-11-20T05:55:02.249Z,2.90
2017-11-20T05:58:25.744Z,2.80
2017-11-20T06:01:49.220Z,2.30
2017-11-20T06:05:12.691Z,2.87
2017-11-20T06:08:36.149Z,2.20
2017-11-20T06:11:59.726Z,3.30
2017-11-20T06:15:23.222Z,2.07
2017-11-20T06:18:47.520Z,4.70
2017-11-20T06:22:11.008Z,2.00
2017-11-20T06:25:34.463Z,1.87
2017-11-20T06:28:58.555Z,2.50
2017-11-20T06:32:22.188Z,1.87
2017-11-20T06:35:45.689Z,1.67
2017-11-20T06:39:09.186Z,2.57
2017-11-20T06:42:32.650Z,3.53
2017-11-20T06:45:56.101Z,2.60
2017-11-20T06:49:19.563Z,2.50
2017-11-20T06:52:43.039Z,2.33
2017-11-20T06:56:06.582Z,3.00
2017-11-20T06:59:30.121Z,2.20
2017-11-20T07:02:53.596Z,2.50
2017-11-20T07:06:17.108Z,2.43
2017-11-20T07:09:41.509Z,5.70
2017-11-20T07:13:05.754Z,8.07
2017-11-20T07:16:29.331Z,7.13
2017-11-20T07:19:52.816Z,6.83
2017-11-20T07:23:16.308Z,3.30
2017-11-20T07:26:51.715Z,6.17
2017-11-20T07:30:27.152Z,5.70
2017-11-20T07:34:03.513Z,6.07
2017-11-20T07:37:38.892Z,8.87
2017-11-20T07:41:05.328Z,9.90
2017-11-20T07:44:28.845Z,7.50
2017-11-20T07:47:52.292Z,6.00
2017-11-20T07:51:15.778Z,9.83
2017-11-20T07:54:39.332Z,6.80
2017-11-20T07:58:02.828Z,5.40
2017-11-20T08:01:27.079Z,6.47
2017-11-20T08:04:50.571Z,5.27
2017-11-20T08:08:14.043Z,5.47
2017-11-20T08:11:38.295Z,9.70
2017-11-20T08:15:01.762Z,3.83
2017-11-20T08:18:25.223Z,6.73
2017-11-20T08:21:48.853Z,5.70
2017-11-20T08:25:12.323Z,4.00
2017-11-20T08:28:35.790Z,4.47
2017-11-20T08:32:00.074Z,4.80
2017-11-20T08:35:23.545Z,6.50
2017-11-20T08:38:47.179Z,7.47
2017-11-20T08:42:10.646Z,5.50
2017-11-20T08:45:34.136Z,6.80
2017-11-20T08:48:57.643Z,4.97
2017-11-20T08:52:22.649Z,4.33
2017-11-20T08:55:46.123Z,8.10
2017-11-20T08:59:09.576Z,6.17
2017-11-20T09:02:33.054Z,3.03
2017-11-20T09:05:56.574Z,3.97
2017-11-20T09:09:20.931Z,5.20
2017-11-20T09:12:44.398Z,5.63
2017-11-20T09:16:07.885Z,3.03
2017-11-20T09:19:31.371Z,4.23
2017-11-20T09:22:55.756Z,5.70
2017-11-20T09:26:19.226Z,4.50
2017-11-20T09:29:44.228Z,4.13
2017-11-20T09:33:07.731Z,4.80
2017-11-20T09:36:32.052Z,5.10
2017-11-20T09:39:55.508Z,4.00
2017-11-20T09:43:19.016Z,6.33
2017-11-20T09:46:42.499Z,3.60
2017-11-20T09:50:05.968Z,2.50
2017-11-20T09:53:29.524Z,3.23
2017-11-20T09:56:53.119Z,4.07
2017-11-20T10:00:16.653Z,2.10
2017-11-20T10:03:40.104Z,2.37
2017-11-20T10:07:03.589Z,4.00
2017-11-20T10:10:27.058Z,2.97
2017-11-20T10:13:50.536Z,1.80
2017-11-20T10:17:14.011Z,3.50
2017-11-20T10:20:37.499Z,1.93
2017-11-20T10:24:00.977Z,2.00
2017-11-20T10:27:24.484Z,2.60
2017-11-20T10:30:48.709Z,1.70
2017-11-20T10:34:12.221Z,2.23
2017-11-20T10:37:35.679Z,2.10
2017-11-20T10:40:59.168Z,2.33
2017-11-20T10:44:22.636Z,3.27
2017-11-20T10:47:46.105Z,2.13
2017-11-20T10:51:10.304Z,1.63
2017-11-20T10:54:33.799Z,1.50
2017-11-20T10:57:57.286Z,1.97
2017-11-20T11:01:20.747Z,1.60
2017-11-20T11:04:44.971Z,1.83
2017-11-20T11:08:08.576Z,1.70
2017-11-20T11:11:32.049Z,1.40
2017-11-20T11:14:55.524Z,1.43
2017-11-20T11:18:19.007Z,1.50
2017-11-20T11:21:42.604Z,1.30
2017-11-20T11:25:06.868Z,1.40
2017-11-20T11:28:30.353Z,1.73
2017-11-20T11:31:53.821Z,1.50
2017-11-20T11:35:17.292Z,1.30
2017-11-20T11:38:40.766Z,1.40
2017-11-20T11:42:04.279Z,1.20
2017-11-20T11:45:27.894Z,2.00
2017-11-20T11:48:51.348Z,1.97
2017-11-20T11:52:14.824Z,1.37
2017-11-20T11:55:38.449Z,1.70
2017-11-20T11:59:01.943Z,1.40
2017-11-20T12:02:25.579Z,3.13
2017-11-20T12:05:49.091Z,2.13
2017-11-20T12:09:12.570Z,1.60
2017-11-20T12:12:36.067Z,1.73
2017-11-20T12:15:59.548Z,1.63
2017-11-20T12:19:23.047Z,1.37
2017-11-20T12:22:46.556Z,1.33
2017-11-20T12:26:10.027Z,0.97
2017-11-20T12:29:33.506Z,1.43
2017-11-20T12:32:57.032Z,1.03
2017-11-20T12:36:20.551Z,1.43
2017-11-20T12:39:44.058Z,1.40
2017-11-20T12:43:07.780Z,1.80
2017-11-20T12:46:32.024Z,2.20
2017-11-20T12:49:55.510Z,1.43
2017-11-20T12:53:18.983Z,3.00
2017-11-20T12:56:42.463Z,2.30
2017-11-20T13:00:05.937Z,2.43
2017-11-20T13:03:30.190Z,1.30
2017-11-20T13:06:53.748Z,1.67
2017-11-20T13:10:17.374Z,1.23
2017-11-20T13:13:40.884Z,1.53
2017-11-20T13:17:04.374Z,1.63
2017-11-20T13:20:28.067Z,3.47
2017-11-20T13:23:51.537Z,1.10
2017-11-20T13:27:15.045Z,1.77
2017-11-20T13:30:39.307Z,2.80
2017-11-20T13:34:04.332Z,2.00
2017-11-20T13:37:29.311Z,1.27
2017-11-20T13:40:52.790Z,1.20
2017-11-20T13:44:16.291Z,2.37
2017-11-20T13:47:39.834Z,1.40
2017-11-20T13:51:03.290Z,1.77
2017-11-20T13:54:26.758Z,2.10
2017-11-20T13:57:50.329Z,1.30
2017-11-20T14:01:14.559Z,1.50
2017-11-20T14:04:38.042Z,1.20
2017-11-20T14:08:01.744Z,2.47
2017-11-20T14:11:25.259Z,1.83
2017-11-20T14:14:48.820Z,1.30
2017-11-20T14:18:12.284Z,2.00
2017-11-20T14:21:35.974Z,1.80
2017-11-20T14:24:59.463Z,1.37
2017-11-20T14:28:22.958Z,0.90
2017-11-20T14:31:46.482Z,1.47
2017-11-20T14:35:10.016Z,1.90
2017-11-20T14:38:33.483Z,1.87
2017-11-20T14:41:57.719Z,1.30
2017-11-20T14:45:21.186Z,2.93
2017-11-20T14:48:44.700Z,2.40
2017-11-20T14:52:09.670Z,1.93
2017-11-20T14:55:33.129Z,2.73
2017-11-20T14:58:56.629Z,2.20
2017-11-20T15:02:20.147Z,1.57
2017-11-20T15:05:44.413Z,1.33
2017-11-20T15:09:07.865Z,2.97
2017-11-20T15:12:31.367Z,3.10
2017-11-20T15:15:54.876Z,2.83
2017-11-20T15:19:18.376Z,3.17
2017-11-20T15:22:43.005Z,1.70
2017-11-20T15:26:08.022Z,2.60
2017-11-20T15:29:31.742Z,3.53
2017-11-20T15:32:55.210Z,3.07
2017-11-20T15:36:18.680Z,1.80
2017-11-20T15:39:42.165Z,1.83
2017-11-20T15:43:05.684Z,3.63
2017-11-20T15:46:29.948Z,1.50
2017-11-20T15:49:53.649Z,3.53
2017-11-20T15:53:18.796Z,1.73
2017-11-20T15:56:43.030Z,1.70
2017-11-20T16:00:06.645Z,1.90
2017-11-20T16:03:30.883Z,1.60
2017-11-20T16:06:54.403Z,1.83
2017-11-20T16:10:18.038Z,1.70
2017-11-20T16:13:41.515Z,1.57
2017-11-20T16:17:05.001Z,1.10
2017-11-20T16:20:29.165Z,2.03
2017-11-20T16:23:52.622Z,1.83
2017-11-20T16:27:16.180Z,1.27
2017-11-20T16:30:39.648Z,2.47
2017-11-20T16:34:03.161Z,2.47
2017-11-20T16:37:26.770Z,1.23
2017-11-20T16:40:51.061Z,1.30
2017-11-20T16:44:15.307Z,1.77
2017-11-20T16:47:38.986Z,2.47
2017-11-20T16:51:02.476Z,1.27
2017-11-20T16:54:25.948Z,1.50
2017-11-20T16:58:01.309Z,0.90
2017-11-20T17:01:37.519Z,1.47
2017-11-20T17:05:01.140Z,1.83
2017-11-20T17:08:24.627Z,1.20
2017-11-20T17:11:49.639Z,1.40
2017-11-20T17:15:13.121Z,1.97
2017-11-20T17:18:36.604Z,0.87
2017-11-20T17:22:00.117Z,2.07
2017-11-20T17:25:23.628Z,1.73
2017-11-20T17:28:47.893Z,1.10
2017-11-20T17:32:12.290Z,1.37
2017-11-20T17:35:35.772Z,1.47
2017-11-20T17:39:00.876Z,0.73
2017-11-20T17:42:24.383Z,0.90
2017-11-20T17:45:48.664Z,0.73
2017-11-20T17:49:12.137Z,1.40
2017-11-20T17:52:35.615Z,3.13
2017-11-20T17:55:59.861Z,1.63
2017-11-20T17:59:23.321Z,1.03
2017-11-20T18:02:46.840Z,1.00
2017-11-20T18:06:11.343Z,2.63
2017-11-20T18:09:36.320Z,1.13
2017-11-20T18:13:01.333Z,0.90
2017-11-20T18:16:24.825Z,3.33
2017-11-20T18:19:49.101Z,2.00
2017-11-20T18:23:14.109Z,1.00
2017-11-20T18:26:39.091Z,0.93
2017-11-20T18:30:02.612Z,0.90
2017-11-20T18:33:26.075Z,2.03
2017-11-20T18:36:49.580Z,1.30
2017-11-20T18:40:13.091Z,1.50
2017-11-20T18:43:36.584Z,7.97
2017-11-20T18:47:01.786Z,1.37
2017-11-20T18:50:25.294Z,1.27
2017-11-20T18:53:49.602Z,1.50
2017-11-20T18:57:13.141Z,1.37
2017-11-20T19:00:48.635Z,2.30
2017-11-20T19:04:24.091Z,1.30
2017-11-20T19:07:59.548Z,2.23
2017-11-20T19:11:23.071Z,2.20
2017-11-20T19:14:46.564Z,1.30
2017-11-20T19:18:10.024Z,2.67
2017-11-20T19:21:34.259Z,1.50
2017-11-20T19:24:57.764Z,1.63
2017-11-20T19:28:21.261Z,1.50
2017-11-20T19:31:45.713Z,2.40
2017-11-20T19:35:09.214Z,2.17
2017-11-20T19:38:33.476Z,1.90
2017-11-20T19:41:57.158Z,3.93
2017-11-20T19:45:20.664Z,4.93
2017-11-20T19:48:44.917Z,3.90
2017-11-20T19:52:08.429Z,1.70
2017-11-20T19:55:32.729Z,4.57
2017-11-20T19:58:56.205Z,1.23
2017-11-20T20:02:19.792Z,2.23
2017-11-20T20:05:43.283Z,2.17
2017-11-20T20:09:06.776Z,1.73
2017-11-20T20:12:36.196Z,3.37
2017-11-20T20:16:18.321Z,1.83
2017-11-20T20:19:47.858Z,1.53
2017-11-20T20:23:17.473Z,2.10
2017-11-20T20:26:47.123Z,1.17
2017-11-20T20:30:16.471Z,1.83
2017-11-20T20:33:46.086Z,1.23
2017-11-20T20:37:16.290Z,1.27
2017-11-20T20:40:45.622Z,1.10
2017-11-20T20:44:15.210Z,2.33
2017-11-20T20:47:44.729Z,1.00
2017-11-20T20:51:08.227Z,1.20
2017-11-20T20:54:32.705Z,0.97
2017-11-20T20:57:56.213Z,1.20
2017-11-20T21:01:19.747Z,3.63
2017-11-20T21:04:43.381Z,1.50
2017-11-20T21:08:06.911Z,2.07
2017-11-20T21:11:36.091Z,1.20
2017-11-20T21:15:00.462Z,2.00
2017-11-20T21:18:24.647Z,3.20
2017-11-20T21:37:20.327Z,4.00
2017-11-20T21:40:43.818Z,1.40
2017-11-20T21:44:08.164Z,1.33
2017-11-20T21:47:31.613Z,2.00
2017-11-20T21:50:55.095Z,1.90
2017-11-20T21:54:18.858Z,8.23
2017-11-20T21:57:43.071Z,2.80
2017-11-20T22:01:06.579Z,1.77
2017-11-20T22:04:30.122Z,1.60
2017-11-20T22:07:53.623Z,2.97
2017-11-20T22:11:18.623Z,1.10
2017-11-20T22:14:42.152Z,1.50
2017-11-20T22:18:05.598Z,1.27
2017-11-20T22:21:29.869Z,2.33
2017-11-20T22:24:53.364Z,1.20
2017-11-20T22:28:17.612Z,2.03
2017-11-20T22:31:41.106Z,2.97
2017-11-20T22:35:04.668Z,4.30
2017-11-20T22:38:28.156Z,1.57
2017-11-20T22:41:52.394Z,1.27
2017-11-20T22:45:15.844Z,1.10
2017-11-20T22:48:39.303Z,1.90
2017-11-20T22:52:03.551Z,1.47
2017-11-20T22:55:27.108Z,3.33
2017-11-20T22:58:51.417Z,1.07
2017-11-20T23:02:14.992Z,1.47
2017-11-20T23:05:38.475Z,1.63
2017-11-20T23:09:01.996Z,1.27
2017-11-20T23:12:25.433Z,0.73
2017-11-20T23:15:49.719Z,0.80
2017-11-20T23:19:13.179Z,1.10
2017-11-20T23:30:23.280Z,0.80
2017-11-20T23:33:46.824Z,1.20
2017-11-20T23:37:10.411Z,1.10
2017-11-20T23:59:54.292Z,1.50
